Skip Navigation Links
NOAA logo - Click to go to the NOAA homepage
NOAA's National Weather Service
Alaska Aviation Weather Unit
  NWS logo - Click to go to the NWS homepage
Left Navbar Graphic     19 AKDT = 03 GMT

   
NOAA is celebrating 200 years of science, service, and stewardship. Visit the NOAA 200th celebration Web site to learn more.
USA.gov is the U.S. Government's official Web portal to all Federal, state and local government Web resources and services.
Facebook
NWS on Facebook

Important Change Regarding the AAWU Web Presence

 

Over the last several months, the AAWU has been working to navigate its webpages to a nationally supported server. Security, as well as other needs, have necessitated the change.  We have been given an extension for the site changeover while we diligently work at addressing feedback received. As of July 14, 2017, aawu.arh.noaa.gov will be discontinued. The new AAWU web address is weather.gov/aawu. It is now live and will run in-parallel with the old site until it is discontinued on July 14, 2017. Please continue to send any feedback or questions regarding the new webpages to nws.ar.aawu.webauthors@noaa.gov.  Thank you for your patience during this time of transition.
AAWU Home :: Display TAF Add Bookmark
TAF PAVD 290304Z 2903/2924 27010G18KT P6SM FEW006 BKN070
     FM290500 VRB03KT 5SM -SHRA SCT008 OVC020
     FM291200 VRB03KT P6SM SCT025 OVC040 AMD LTD TO CLD VIS AND
      WIND=
PAVD 282116Z 22005KT 10SM FEW008 BKN070 BKN250 13/07 A3007=

METAR PAVD 282116Z 22005KT 10SM FEW008 BKN070 BKN250 13/07 A3007 RMK
 AO1
 2047Z WEA: NONE TWR WND VRB04KT=

PAVD 282136Z 23003KT 10SM FEW008 BKN070 BKN250 13/07 A3008=

METAR PAVD 282136Z 23003KT 10SM FEW008 BKN070 BKN250 13/07 A3008 RMK AO1
     2047Z WEA: NONE TWR WND VRB04KT=

METAR PAVD 282156Z 25004KT 10SM FEW030 BKN070 BKN150 14/07 A3007=

PAVD 282216Z 21004KT 10SM FEW030 BKN070 BKN150 14/07 A3007=

METAR PAVD 282216Z 21004KT 10SM FEW030 BKN070 BKN150 14/07 A3007 RMK AO1
     2147Z WEA: NONE TWR WND 00000KT=

PAVD 282236Z 23004KT 10SM FEW030 BKN070 BKN150 14/06 A3007=

METAR PAVD 282236Z 23004KT 10SM FEW030 BKN070 BKN150 14/06 A3007 RMK AO1
     2147Z WEA: NONE TWR WND 00000KT=

METAR PAVD 282256Z 23006KT 10SM FEW035 BKN090 BKN250 14/07 A3007=

PAVD 282316Z 23004KT 10SM FEW035 BKN090 BKN250 13/06 A3006=

METAR PAVD 282316Z 23004KT 10SM FEW035 BKN090 BKN250 13/06 A3006 RMK AO1
     2247Z WEA: NONE TWR WND VRB05KT=

METAR PAVD 282336Z 24005KT 10SM FEW035 BKN090 BKN250 14/08 A3006=

METAR PAVD 282336Z 24005KT 10SM FEW035 BKN090 BKN250 14/08 A3006 RMK
 AO1
 2247Z WEA: NONE TWR WND VRB05KT=

METAR PAVD 282356Z 25008KT 10SM FEW035 BKN100 BKN250 14/07 A3006=

PAVD 290016Z 24006KT 10SM FEW035 BKN100 BKN250 14/07 A3006=

METAR PAVD 290016Z 24006KT 10SM FEW035 BKN100 BKN250 14/07 A3006 RMK
 AO1
 2347Z WEA: NONE TWR WND VRB05KT=

METAR PAVD 290036Z 24006KT 10SM FEW035 BKN100 BKN250 14/07 A3006=

METAR PAVD 290036Z 24006KT 10SM FEW035 BKN100 BKN250 14/07 A3006 RMK AO1
     2347Z WEA: NONE TWR WND VRB05KT=

METAR PAVD 290056Z 24005KT 10SM FEW035 BKN050 OVC200 14/07 A3005=

PAVD 290116Z 24004KT 10SM FEW035 BKN050 OVC200 14/07 A3006=

METAR PAVD 290116Z 24004KT 10SM FEW035 BKN050 OVC200 14/07 A3006 RMK AO1
     0047Z WEA: -RA RAB30 PCPN VRY LGT TWR WND VRB05KT=

METAR PAVD 290136Z 24007KT 10SM FEW035 BKN050 OVC200 14/07 A3005=

METAR PAVD 290136Z 24007KT 10SM FEW035 BKN050 OVC200 14/07 A3005 RMK AO1
     0047Z WEA: -RA RAB30 PCPN VRY LGT TWR WND VRB05KT=

METAR PAVD 290156Z 28010KT 10SM FEW030 BKN150 BKN250 14/07 A3005=

PAVD 290216Z 27011KT 10SM FEW030 BKN150 BKN250 14/08 A3005=

METAR PAVD 290216Z 27011KT 10SM FEW030 BKN150 BKN250 14/08 A3005 RMK AO1
     0147Z WEA: NONE RAE00 TWR WND VRB04KT=

METAR PAVD 290236Z 28012G15KT 10SM FEW030 BKN150 BKN250 14/07 A3005=

METAR PAVD 290236Z 28012G15KT 10SM FEW030 BKN150 BKN250 14/07 A3005 RMK
     AO1 0147Z WEA: NONE RAE00 TWR WND VRB04KT=

METAR PAVD 290256Z 27013KT 10SM FEW040 BKN070 BKN200 13/07 A3005=

PAVD 290316Z 27013KT 10SM FEW040 BKN070 BKN200 13/08 A3005=

PAVD 290316Z 27013KT 10SM FEW040 BKN070 BKN200 13/08 A3005 RMK AO1
     0247Z WEA: NONE TWR WND 24014KT=

PAVD 290336Z 27010KT 10SM FEW040 BKN070 BKN200 13/08 A3005=

METAR PAVD 290336Z 27010KT 10SM FEW040 BKN070 BKN200 13/08 A3005 RMK AO1
     0247Z WEA: NONE TWR WND 24014KT=


NOAA's National Weather Service
Alaska Aviation Weather Unit
6930 Sand Lake Road
Anchorage, AK 99502-1845
Disclaimer
Credits
Glossary
Privacy Policy
About Us
Career Opportunities
Contact AAWU Internet Services Site last modified: April, 17th 2012